Time;durP1;ratioP1;P1;durP2;ratioP2;P2;SDS_P1;SDS_P2;PMS_P1;PMS_P2;Temp;Humidity;BMP_temperature;BMP_pressure;BME280_temperature;BME280_humidity;BME280_pressure;Samples;Min_cycle;Max_cycle;Signal;HPM_P1;HPM_P2
2021/10/10 00:03:07;;;;;;;;;;;;;;;;;;;;;
2021/10/10 00:09:26;;;;;;;;;43.50;34.50;;;;;20.60;49.03;101776.63;5037665;27;45280;-70
2021/10/10 00:15:35;;;;;;;;;38.75;34.25;;;;;20.49;49.28;101775.03;5009648;28;45298;-71
2021/10/10 00:18:00;;;;;;;;;37.50;34.00;;;;;20.46;49.23;101785.69;4984484;28;45460;-70
2021/10/10 00:20:26;;;;;;;;;40.25;32.50;;;;;20.44;49.23;101779.53;4984404;28;45438;-70
2021/10/10 00:23:42;;;;;;;;;41.75;35.00;;;;;20.42;49.20;101778.66;4983807;28;56805;-70
2021/10/10 00:26:08;;;;;;;;;45.00;36.00;;;;;20.38;49.67;101780.47;4961379;28;45548;-70
2021/10/10 00:28:55;;;;;;;;;42.00;36.00;;;;;20.37;49.67;101781.38;4929387;28;55957;-70
2021/10/10 00:35:21;;;;;;;;;42.00;33.25;;;;;20.19;49.90;101763.97;4881065;29;45534;-70
2021/10/10 00:38:37;;;;;;;;;;;;;;;;;;;;;
2021/10/10 00:40:57;;;;;;;;;44.50;34.25;;;;;20.23;50.02;101781.56;4927145;28;45459;-70
2021/10/10 00:43:23;;;;;;;;;43.75;36.75;;;;;20.21;50.17;101782.47;4941577;28;55865;-69
2021/10/10 00:49:28;;;;;;;;;40.50;32.75;;;;;20.19;50.26;101782.50;4914482;28;45257;-70
2021/10/10 01:02:22;;;;;;;;;38.50;33.25;;;;;20.06;50.25;101749.09;4980238;28;45629;-69
2021/10/10 01:04:51;;;;;;;;;48.00;36.75;;;;;20.23;50.00;101776.25;4985476;28;47003;-71
2021/10/10 01:07:29;;;;;;;;;44.50;36.50;;;;;20.22;50.12;101774.50;5046668;28;45572;-70
2021/10/10 01:09:54;;;;;;;;;38.50;33.75;;;;;20.25;50.03;101779.78;5045492;28;61461;-69
2021/10/10 01:12:19;;;;;;;;;41.50;34.25;;;;;20.27;49.94;101779.75;5063138;28;50920;-69
2021/10/10 01:14:45;;;;;;;;;44.00;36.75;;;;;20.26;50.07;101781.53;5062663;28;60809;-69
2021/10/10 01:17:10;;;;;;;;;42.50;33.25;;;;;20.29;50.09;101778.81;5062641;28;61952;-69
2021/10/10 01:19:35;;;;;;;;;43.75;34.50;;;;;20.30;50.00;101771.75;5045507;28;69881;-69
2021/10/10 01:22:01;;;;;;;;;45.00;35.75;;;;;20.30;50.16;101772.63;5046581;28;45351;-69
2021/10/10 01:24:27;;;;;;;;;37.75;33.50;;;;;20.32;49.35;101773.47;5079985;28;45371;-69
2021/10/10 01:26:52;;;;;;;;;40.50;33.50;;;;;20.31;49.95;101779.66;5042514;28;45383;-70
2021/10/10 01:29:18;;;;;;;;;43.25;34.25;;;;;20.32;49.79;101769.94;5061053;28;54459;-69
2021/10/10 01:31:43;;;;;;;;;42.50;34.00;;;;;20.29;49.78;101765.56;5079943;28;45390;-69
2021/10/10 01:34:09;;;;;;;;;42.00;34.75;;;;;20.26;50.06;101767.41;5079375;28;56721;-69
2021/10/10 01:36:34;;;;;;;;;35.50;29.50;;;;;20.20;50.02;101771.00;5066260;27;45835;-69
2021/10/10 01:39:00;;;;;;;;;37.75;32.25;;;;;20.17;50.24;101773.72;5070731;27;46918;-69
2021/10/10 01:41:25;;;;;;;;;37.50;32.50;;;;;20.16;50.00;101768.44;5080642;28;45194;-69
2021/10/10 01:43:50;;;;;;;;;41.25;36.75;;;;;20.11;50.02;101773.78;5100171;27;51304;-69
2021/10/10 01:46:16;;;;;;;;;41.25;34.25;;;;;20.13;50.07;101768.47;5102182;27;49072;-69
2021/10/10 01:48:41;;;;;;;;;36.50;30.50;;;;;20.12;49.91;101762.28;5102207;27;46164;-70
2021/10/10 01:51:07;;;;;;;;;42.75;35.50;;;;;20.13;50.07;101764.03;5067133;27;45825;-69
2021/10/10 01:53:32;;;;;;;;;40.50;33.25;;;;;20.13;50.25;101758.72;5082992;27;45334;-69
2021/10/10 01:55:57;;;;;;;;;39.50;35.50;;;;;20.16;50.20;101752.53;5081817;27;45214;-69
2021/10/10 01:58:23;;;;;;;;;41.00;33.75;;;;;20.16;49.98;101749.88;5097503;27;61053;-69
2021/10/10 02:00:48;;;;;;;;;39.75;34.00;;;;;20.11;49.93;101755.22;5083555;27;57010;-69
2021/10/10 02:03:14;;;;;;;;;37.25;31.75;;;;;20.10;50.33;101752.59;5080453;28;45522;-69
2021/10/10 02:05:39;;;;;;;;;38.50;31.75;;;;;20.08;49.85;101750.00;5079853;28;58878;-69
2021/10/10 02:08:04;;;;;;;;;42.00;34.00;;;;;20.03;50.30;101744.72;5081213;27;45368;-69
2021/10/10 02:10:30;;;;;;;;;45.00;34.75;;;;;20.03;49.40;101742.09;5056880;27;45404;-69
2021/10/10 02:12:55;;;;;;;;;40.50;34.25;;;;;19.99;49.94;101743.03;5100795;27;45430;-69
2021/10/10 02:15:21;;;;;;;;;39.25;33.50;;;;;19.97;50.18;101747.47;5073060;28;50648;-69
2021/10/10 02:17:46;;;;;;;;;38.25;33.75;;;;;19.95;50.13;101748.38;5079490;27;65412;-70
2021/10/10 02:20:12;;;;;;;;;34.25;30.00;;;;;19.91;49.94;101738.75;5073576;28;45352;-69
2021/10/10 02:22:37;;;;;;;;;41.00;32.75;;;;;19.92;50.47;101741.38;5083385;27;45276;-69
2021/10/10 02:25:04;;;;;;;;;36.50;32.75;;;;;19.95;50.25;101741.31;5083371;27;45435;-69
2021/10/10 02:27:29;;;;;;;;;42.25;34.25;;;;;19.98;50.33;101748.34;5049461;28;47283;-69
2021/10/10 02:29:55;;;;;;;;;44.50;34.75;;;;;19.95;50.42;101738.66;5089922;27;50567;-69
2021/10/10 02:32:20;;;;;;;;;44.00;36.50;;;;;19.97;50.02;101747.47;5080051;27;45283;-69
2021/10/10 02:34:46;;;;;;;;;40.75;31.75;;;;;19.97;50.24;101751.88;5083855;27;45571;-69
2021/10/10 02:37:11;;;;;;;;;41.75;34.00;;;;;19.94;50.33;101750.16;5079688;27;46231;-71
2021/10/10 02:39:36;;;;;;;;;34.75;30.75;;;;;19.95;50.58;101748.38;5069091;28;58043;-69
2021/10/10 02:42:03;;;;;;;;;36.75;33.50;;;;;19.98;50.63;101754.53;5062859;28;45284;-69
2021/10/10 02:44:28;;;;;;;;;37.75;33.25;;;;;20.05;50.46;101752.66;5069788;28;45255;-69
2021/10/10 02:46:54;;;;;;;;;38.00;35.25;;;;;20.05;50.20;101750.88;5061653;27;47102;-69
2021/10/10 02:49:19;;;;;;;;;20.00;14.50;;;;;20.04;50.21;101751.78;5065840;27;54449;-69
2021/10/10 02:51:44;;;;;;;;;50.00;33.50;;;;;20.01;49.62;101758.91;5079174;27;56997;-69
2021/10/10 02:54:10;;;;;;;;;43.75;34.50;;;;;19.94;50.27;101755.47;5068392;28;63031;-69
2021/10/10 02:56:35;;;;;;;;;47.25;40.25;;;;;19.91;50.15;101752.00;5081593;27;61346;-69
2021/10/10 02:59:00;;;;;;;;;41.50;34.00;;;;;19.92;49.91;101751.09;5099658;27;55185;-69
2021/10/10 03:01:26;;;;;;;;;37.00;33.25;;;;;19.88;50.16;101752.88;5080543;27;45840;-69
2021/10/10 03:03:51;;;;;;;;;38.75;33.50;;;;;19.86;50.10;101753.81;5079782;28;45342;-69
2021/10/10 03:06:17;;;;;;;;;29.00;27.00;;;;;19.82;49.93;101741.50;5078919;27;60875;-69
2021/10/10 03:08:42;;;;;;;;;43.25;35.75;;;;;19.81;50.24;101745.03;5078872;28;61261;-69
2021/10/10 03:11:07;;;;;;;;;41.00;32.50;;;;;19.80;50.08;101753.88;5079466;27;45392;-69
2021/10/10 03:13:33;;;;;;;;;38.50;33.75;;;;;19.79;50.40;101757.44;5079112;28;53891;-69
2021/10/10 03:15:58;;;;;;;;;45.50;35.25;;;;;19.81;50.25;101751.25;5074902;27;45352;-69
2021/10/10 03:18:24;;;;;;;;;42.00;34.75;;;;;19.83;50.35;101756.50;5068276;28;45568;-69
2021/10/10 03:20:50;;;;;;;;;42.25;33.25;;;;;19.81;50.47;101745.94;5074669;28;45423;-69
2021/10/10 03:23:15;;;;;;;;;40.75;32.75;;;;;19.79;50.48;101747.69;5078629;28;60938;-69
2021/10/10 03:25:41;;;;;;;;;41.25;33.25;;;;;19.79;50.54;101746.84;5080750;27;45928;-69
2021/10/10 03:28:06;;;;;;;;;40.75;33.50;;;;;19.80;50.60;101753.88;5099060;27;56177;-69
2021/10/10 03:30:31;;;;;;;;;44.00;36.25;;;;;19.81;50.60;101756.53;5099159;27;55514;-69
2021/10/10 03:32:57;;;;;;;;;43.75;35.00;;;;;19.78;50.17;101756.56;5100519;27;56941;-69
2021/10/10 03:35:22;;;;;;;;;36.75;33.50;;;;;19.74;50.26;101755.72;5082625;27;60474;-69
2021/10/10 03:37:48;;;;;;;;;42.75;35.75;;;;;19.76;50.45;101761.88;5064652;27;62417;-69
2021/10/10 03:40:14;;;;;;;;;41.50;35.25;;;;;19.77;50.55;101758.31;5078825;27;45350;-69
2021/10/10 03:42:39;;;;;;;;;43.00;36.25;;;;;19.77;50.30;101760.97;5070220;27;45337;-69
2021/10/10 03:45:06;;;;;;;;;37.25;33.25;;;;;19.79;50.52;101754.78;5095918;27;45559;-69
2021/10/10 03:47:31;;;;;;;;;38.50;34.00;;;;;19.83;50.66;101760.03;5082126;27;45326;-69
2021/10/10 03:49:57;;;;;;;;;38.00;33.75;;;;;19.86;50.13;101745.84;5048636;27;45786;-69
2021/10/10 03:52:22;;;;;;;;;35.75;30.00;;;;;19.84;50.29;101747.66;5082091;27;52869;-69
2021/10/10 03:57:31;;;;;;;;;37.00;32.25;;;;;19.84;50.56;101748.53;5085268;27;45439;-69
2021/10/10 04:00:03;;;;;;;;;45.25;36.00;;;;;19.86;50.39;101746.72;5068829;27;45250;-69
2021/10/10 04:02:29;;;;;;;;;41.00;34.75;;;;;19.91;50.55;101757.28;5071001;27;45347;-69
2021/10/10 04:04:54;;;;;;;;;40.00;34.00;;;;;19.89;50.30;101753.75;5103884;27;46171;-69
2021/10/10 04:07:20;;;;;;;;;39.75;32.75;;;;;19.90;49.97;101763.50;5103984;27;45300;-69
2021/10/10 04:09:46;;;;;;;;;35.25;32.75;;;;;19.84;49.63;101750.31;5085505;27;45382;-69
2021/10/10 04:12:11;;;;;;;;;41.50;34.25;;;;;19.77;49.90;101757.44;5085037;27;61104;-69
2021/10/10 04:14:36;;;;;;;;;43.25;33.75;;;;;19.75;50.22;101756.59;5068268;27;49279;-69
2021/10/10 04:17:02;;;;;;;;;39.50;34.25;;;;;19.75;50.35;101754.81;5103476;27;58890;-69
2021/10/10 04:19:27;;;;;;;;;47.00;36.00;;;;;19.76;50.10;101756.56;5085929;27;45532;-69
2021/10/10 04:21:53;;;;;;;;;39.50;35.00;;;;;19.76;50.17;101753.94;5114607;27;45529;-69
2021/10/10 04:24:18;;;;;;;;;43.75;35.50;;;;;19.73;50.14;101759.28;5105625;27;46504;-69
2021/10/10 04:26:44;;;;;;;;;47.25;36.00;;;;;19.67;50.55;101753.16;5084677;27;63742;-70
2021/10/10 04:29:09;;;;;;;;;42.75;32.50;;;;;19.65;50.46;101758.50;5054117;27;57095;-70
2021/10/10 04:31:35;;;;;;;;;35.00;32.00;;;;;19.62;50.45;101758.50;5095575;27;61320;-70
2021/10/10 04:34:00;;;;;;;;;37.00;33.25;;;;;19.58;50.61;101763.88;5092235;27;50804;-70
2021/10/10 04:36:25;;;;;;;;;40.75;33.25;;;;;19.57;50.79;101768.28;5075095;27;50554;-70
2021/10/10 04:38:51;;;;;;;;;41.00;35.75;;;;;19.56;50.40;101766.53;5051200;27;45206;-68
2021/10/10 04:41:16;;;;;;;;;43.00;35.75;;;;;19.54;50.71;101765.63;5051123;27;51054;-69
2021/10/10 04:43:42;;;;;;;;;43.25;35.50;;;;;19.53;50.54;101765.66;5102587;27;45248;-69
2021/10/10 04:46:07;;;;;;;;;38.50;34.75;;;;;19.51;50.97;101768.31;5067549;27;65874;-69
2021/10/10 04:48:32;;;;;;;;;40.25;34.75;;;;;19.47;50.34;101766.63;5085055;27;45229;-70
2021/10/10 04:50:58;;;;;;;;;41.50;34.75;;;;;19.40;50.48;101768.44;5085093;27;50164;-70
2021/10/10 04:53:23;;;;;;;;;41.00;31.00;;;;;19.39;50.59;101765.81;5084143;27;60101;-70
2021/10/10 04:55:49;;;;;;;;;40.75;32.00;;;;;19.37;50.92;101771.13;5084371;27;64101;-70
2021/10/10 04:58:14;;;;;;;;;44.50;36.50;;;;;19.37;51.13;101772.88;5103328;27;45445;-69
2021/10/10 05:00:39;;;;;;;;;48.00;38.00;;;;;19.38;51.22;101774.66;5085181;27;45320;-70
2021/10/10 05:03:05;;;;;;;;;36.50;33.50;;;;;19.38;51.16;101775.53;5103052;27;45481;-70
2021/10/10 05:05:30;;;;;;;;;43.00;35.25;;;;;19.40;50.98;101771.09;5084784;27;47601;-67
2021/10/10 05:07:56;;;;;;;;;43.25;36.25;;;;;19.42;50.80;101773.72;5084247;27;47272;-69
2021/10/10 05:10:21;;;;;;;;;42.00;34.00;;;;;19.47;51.40;101772.78;5083888;27;45552;-69
2021/10/10 05:12:46;;;;;;;;;43.00;34.50;;;;;19.46;50.43;101776.34;5084619;27;45442;-69
2021/10/10 05:15:12;;;;;;;;;42.75;36.25;;;;;19.46;50.65;101773.69;5067558;27;50622;-69
2021/10/10 05:17:37;;;;;;;;;39.75;33.25;;;;;19.45;51.00;101769.25;5102862;27;45729;-70
2021/10/10 05:20:03;;;;;;;;;34.25;32.00;;;;;19.48;51.07;101768.38;5076609;27;45498;-70
2021/10/10 05:22:28;;;;;;;;;41.75;33.25;;;;;19.49;50.86;101768.34;5072041;27;45371;-70
2021/10/10 05:24:57;;;;;;;;;44.75;35.50;;;;;19.52;50.96;101769.19;5084003;27;52862;-70
2021/10/10 05:27:22;;;;;;;;;43.00;33.50;;;;;19.45;50.58;101765.72;5081915;27;45246;-70
2021/10/10 05:29:48;;;;;;;;;45.25;35.25;;;;;19.41;50.76;101767.56;5059878;27;45549;-69
2021/10/10 05:32:13;;;;;;;;;39.25;31.75;;;;;19.35;50.77;101777.31;5106112;27;66292;-69
2021/10/10 05:34:38;;;;;;;;;45.00;37.75;;;;;19.34;50.82;101783.50;5087520;27;60501;-68
2021/10/10 05:37:04;;;;;;;;;48.75;36.75;;;;;19.31;51.15;101781.78;5102529;27;46847;-69
2021/10/10 05:39:29;;;;;;;;;44.75;35.25;;;;;19.29;50.92;101783.56;5083709;27;57172;-69
2021/10/10 05:41:55;;;;;;;;;40.25;36.25;;;;;19.28;51.06;101783.56;5084211;27;45440;-69
2021/10/10 05:44:20;;;;;;;;;39.75;34.75;;;;;19.26;51.26;101777.41;5050403;27;45453;-70
2021/10/10 05:46:46;;;;;;;;;44.75;35.25;;;;;19.25;51.16;101781.84;5079534;27;45412;-70
2021/10/10 05:49:14;;;;;;;;;44.00;37.25;;;;;19.26;50.43;101782.72;5072811;27;45502;-70
2021/10/10 05:51:43;;;;;;;;;48.00;36.00;;;;;19.22;50.95;101788.94;5073633;27;45790;-70
2021/10/10 05:54:10;;;;;;;;;37.75;31.75;;;;;19.15;51.11;101786.34;5104964;27;45430;-70
2021/10/10 05:56:38;;;;;;;;;41.25;35.25;;;;;19.19;51.12;101790.69;5104827;27;45363;-68
2021/10/10 05:59:07;;;;;;;;;40.50;32.75;;;;;19.20;51.30;101786.31;5105020;27;45286;-68
2021/10/10 06:01:32;;;;;;;;;42.00;34.25;;;;;19.19;51.04;101792.47;5087441;27;48053;-68
2021/10/10 06:04:03;;;;;;;;;39.25;34.75;;;;;19.17;51.21;101789.84;5104071;27;60295;-68
2021/10/10 06:06:28;;;;;;;;;41.00;34.00;;;;;19.17;51.00;101789.84;5122842;27;45407;-69
2021/10/10 06:08:53;;;;;;;;;41.25;35.50;;;;;19.18;51.24;101799.53;5104005;27;47363;-68
2021/10/10 06:11:19;;;;;;;;;42.25;36.50;;;;;19.14;51.32;101800.47;5104068;27;46011;-69
2021/10/10 06:13:47;;;;;;;;;40.25;34.00;;;;;19.14;51.41;101796.94;5104366;27;45294;-70
2021/10/10 06:16:13;;;;;;;;;39.75;33.00;;;;;19.14;51.32;101800.47;5104307;27;45274;-70
2021/10/10 06:18:43;;;;;;;;;40.25;33.25;;;;;19.18;50.95;101801.31;5104283;27;45252;-70
2021/10/10 06:21:09;;;;;;;;;42.75;33.00;;;;;19.24;51.58;101801.25;5100034;27;46630;-70
2021/10/10 06:23:34;;;;;;;;;35.50;30.00;;;;;19.29;51.08;101798.56;5066173;27;49462;-69
2021/10/10 06:26:00;;;;;;;;;33.00;32.25;;;;;19.30;51.42;101802.97;5098473;27;45596;-69
2021/10/10 06:28:25;;;;;;;;;39.25;32.50;;;;;19.30;51.35;101802.97;5075643;27;45469;-70
2021/10/10 06:31:04;;;;;;;;;45.75;36.75;;;;;19.31;51.17;101796.78;5094800;27;62727;-70
2021/10/10 06:33:29;;;;;;;;;47.25;39.00;;;;;19.32;51.03;101803.84;5054487;27;45517;-70
2021/10/10 06:35:55;;;;;;;;;39.25;34.00;;;;;19.31;51.38;101802.97;5065755;27;52699;-68
2021/10/10 06:38:20;;;;;;;;;44.25;37.75;;;;;19.35;50.89;101814.38;5076109;27;45532;-69
2021/10/10 06:41:34;;;;;;;;;45.50;35.25;;;;;19.33;50.64;101811.75;5066653;27;46315;-70
2021/10/10 06:43:59;;;;;;;;;45.25;36.75;;;;;19.34;51.03;101815.28;5121015;27;45443;-69
2021/10/10 06:46:25;;;;;;;;;45.00;35.25;;;;;19.34;51.14;101817.91;5102981;27;61184;-70
2021/10/10 06:48:50;;;;;;;;;41.75;35.00;;;;;19.33;50.80;101819.69;5103318;27;45965;-68
2021/10/10 06:51:16;;;;;;;;;43.75;36.00;;;;;19.34;51.10;101823.22;5103554;27;45596;-69
2021/10/10 06:53:41;;;;;;;;;39.50;35.00;;;;;19.33;50.64;101816.16;5103209;27;45379;-69
2021/10/10 06:56:07;;;;;;;;;37.25;32.75;;;;;19.31;51.08;101816.19;5074009;27;45888;-69
2021/10/10 06:58:37;;;;;;;;;39.50;33.75;;;;;19.32;50.80;101832.94;5082255;27;64661;-69
2021/10/10 07:01:03;;;;;;;;;43.50;34.50;;;;;19.32;50.92;101825.00;5074942;27;46549;-70
2021/10/10 07:03:28;;;;;;;;;45.25;37.25;;;;;19.36;50.66;101832.00;5066544;27;45265;-69
2021/10/10 07:05:53;;;;;;;;;40.75;34.00;;;;;19.33;50.50;101840.00;5049294;27;45857;-69
2021/10/10 07:08:19;;;;;;;;;46.50;38.25;;;;;19.30;51.01;101834.75;5065604;27;56376;-70
2021/10/10 07:10:44;;;;;;;;;48.50;36.75;;;;;19.31;51.21;101825.91;5082699;27;46289;-70
2021/10/10 07:13:10;;;;;;;;;42.25;36.00;;;;;19.32;50.73;101830.31;5082255;27;53471;-69
2021/10/10 07:15:35;;;;;;;;;40.75;33.25;;;;;19.30;50.77;101824.16;5089447;27;58137;-69
2021/10/10 07:18:04;;;;;;;;;45.00;36.25;;;;;19.28;51.27;101828.56;5082787;27;45680;-69
2021/10/10 07:20:52;;;;;;;;;39.25;35.00;;;;;19.30;50.73;101837.38;5086334;27;47113;-69
2021/10/10 07:25:56;;;;;;;;;38.25;35.00;;;;;19.26;51.11;101825.06;5075003;27;45493;-69
2021/10/10 07:28:21;;;;;;;;;38.75;34.50;;;;;19.28;50.94;101828.56;5086119;27;45428;-69
2021/10/10 07:30:48;;;;;;;;;43.25;36.50;;;;;19.28;50.96;101837.38;5085222;27;61778;-69
2021/10/10 07:33:14;;;;;;;;;41.75;34.50;;;;;19.29;50.36;101840.94;5075708;27;45414;-70
2021/10/10 07:35:45;;;;;;;;;41.75;35.00;;;;;19.28;50.90;101839.16;5051235;27;45242;-70
2021/10/10 07:38:11;;;;;;;;;48.00;37.25;;;;;19.30;50.93;101840.91;5052818;27;45476;-70
2021/10/10 07:40:36;;;;;;;;;40.00;33.75;;;;;19.34;51.08;101841.75;5067440;27;46201;-69
2021/10/10 07:43:02;;;;;;;;;44.75;36.75;;;;;19.37;50.71;101836.41;5094207;27;45382;-69
2021/10/10 07:45:33;;;;;;;;;41.25;34.25;;;;;19.40;50.83;101839.06;5085856;27;45391;-69
2021/10/10 07:48:03;;;;;;;;;37.75;32.00;;;;;19.41;50.23;101833.72;5074392;27;45355;-70
2021/10/10 07:50:28;;;;;;;;;42.25;34.75;;;;;19.44;50.65;101833.69;5082635;27;45378;-69
2021/10/10 07:52:53;;;;;;;;;39.25;36.00;;;;;19.46;50.32;101833.72;5081694;27;52589;-70
2021/10/10 07:55:19;;;;;;;;;37.50;32.25;;;;;19.47;50.70;101838.09;5064846;27;56523;-69
2021/10/10 07:57:46;;;;;;;;;51.50;38.75;;;;;19.54;50.50;101849.47;5065311;27;45580;-69
2021/10/10 08:00:12;;;;;;;;;47.00;34.25;;;;;19.62;50.45;101850.31;5081681;27;45392;-69
2021/10/10 08:02:52;;;;;;;;;45.75;36.00;;;;;19.68;50.31;101848.50;5065368;27;45766;-70
2021/10/10 08:05:55;;;;;;;;;39.00;33.50;;;;;19.73;50.28;101851.97;5090350;27;45456;-70
2021/10/10 08:08:21;;;;;;;;;37.00;32.50;;;;;19.84;50.01;101856.28;5092702;27;45600;-70
2021/10/10 08:10:46;;;;;;;;;39.75;35.00;;;;;19.90;49.39;101856.22;5102390;27;46189;-69
2021/10/10 08:13:18;;;;;;;;;40.25;33.75;;;;;19.92;49.60;101847.34;5102548;27;45345;-71
2021/10/10 08:15:46;;;;;;;;;42.25;35.25;;;;;19.96;49.03;101849.06;5102637;27;45272;-69
2021/10/10 08:18:12;;;;;;;;;45.75;35.00;;;;;20.02;49.00;101853.41;5052244;27;45473;-70
2021/10/10 08:20:38;;;;;;;;;37.50;31.50;;;;;20.02;48.70;101850.75;5095304;27;47408;-69
2021/10/10 08:23:04;;;;;;;;;41.75;35.00;;;;;20.05;49.42;101848.06;5048469;27;45376;-69
2021/10/10 08:28:16;;;;;;;;;41.25;33.50;;;;;20.18;48.91;101865.59;5080270;27;45525;-70
2021/10/10 08:30:41;;;;;;;;;33.00;31.00;;;;;20.23;48.49;101866.38;5081642;27;47600;-70
2021/10/10 08:33:07;;;;;;;;;43.75;34.50;;;;;20.28;48.36;101874.28;5082060;27;45445;-70
2021/10/10 08:35:32;;;;;;;;;41.00;34.00;;;;;20.31;47.96;101864.50;5087882;27;54437;-70
2021/10/10 08:37:58;;;;;;;;;35.00;32.00;;;;;20.33;48.21;101870.69;5101428;27;61307;-70
2021/10/10 08:40:23;;;;;;;;;40.50;33.00;;;;;20.38;47.65;101867.97;5084030;27;47967;-70
2021/10/10 08:42:50;;;;;;;;;45.00;33.75;;;;;20.39;47.68;101861.75;5102097;27;45242;-70
2021/10/10 08:45:34;;;;;;;;;35.50;31.25;;;;;20.41;47.34;101848.47;5086604;27;45418;-70
2021/10/10 08:48:00;;;;;;;;;36.75;27.50;;;;;20.42;47.06;101843.19;5106598;27;45434;-69
2021/10/10 08:50:29;;;;;;;;;41.25;33.75;;;;;20.46;47.21;101838.72;5105406;27;45383;-70
2021/10/10 08:52:57;;;;;;;;;44.75;33.75;;;;;20.48;47.22;101837.81;5105468;27;45375;-70
2021/10/10 08:55:25;;;;;;;;;40.25;33.00;;;;;20.47;46.79;101837.81;5068186;27;45220;-70
2021/10/10 08:57:51;;;;;;;;;35.50;31.25;;;;;20.51;46.87;101835.13;5098490;27;45474;-69
2021/10/10 09:00:26;;;;;;;;;34.50;30.00;;;;;20.55;46.84;101843.91;5105043;27;55179;-69
2021/10/10 09:02:51;;;;;;;;;37.25;30.50;;;;;20.58;46.58;101850.03;5106307;27;45474;-70
2021/10/10 09:05:17;;;;;;;;;39.25;32.25;;;;;20.62;46.76;101871.22;5105589;27;45322;-69
2021/10/10 09:07:45;;;;;;;;;39.50;33.00;;;;;20.66;46.79;101875.56;5087605;27;45547;-69
2021/10/10 09:10:24;;;;;;;;;36.00;31.25;;;;;20.70;46.47;101878.16;5102952;27;45326;-69
2021/10/10 09:12:50;;;;;;;;;33.50;30.00;;;;;20.73;46.59;101867.50;5084977;27;45603;-70
2021/10/10 09:15:19;;;;;;;;;37.00;31.50;;;;;20.74;46.44;101871.03;5056464;27;45268;-69
2021/10/10 09:17:57;;;;;;;;;34.75;30.00;;;;;20.80;46.19;101877.13;5084394;27;45246;-69
2021/10/10 09:20:33;;;;;;;;;37.00;31.75;;;;;20.81;46.11;101880.66;5103369;27;46393;-69
2021/10/10 09:22:59;;;;;;;;;35.00;28.75;;;;;20.82;46.42;101874.44;5103524;27;45708;-68
2021/10/10 09:25:24;;;;;;;;;38.50;33.25;;;;;20.84;46.12;101873.50;5105144;27;45334;-70
2021/10/10 09:27:50;;;;;;;;;41.75;31.50;;;;;20.86;46.00;101877.03;5104711;27;45505;-70
2021/10/10 09:30:18;;;;;;;;;33.50;31.50;;;;;20.88;45.88;101883.19;5104763;27;45360;-70
2021/10/10 09:32:46;;;;;;;;;36.50;33.50;;;;;20.91;45.83;101894.66;5105217;27;45360;-70
2021/10/10 09:35:23;;;;;;;;;45.25;34.25;;;;;20.92;46.06;101885.78;5091595;27;45284;-70
2021/10/10 09:38:15;;;;;;;;;35.50;31.75;;;;;20.94;46.25;101881.34;5084334;27;45521;-68
2021/10/10 09:40:49;;;;;;;;;43.25;34.50;;;;;20.97;45.49;101887.50;5101596;27;46411;-70
2021/10/10 09:43:15;;;;;;;;;36.50;32.75;;;;;21.02;45.61;101890.06;5102579;27;45528;-69
2021/10/10 09:48:15;;;;;;;;;33.25;31.00;;;;;21.04;45.51;101889.16;5085454;27;45439;-69
2021/10/10 09:50:47;;;;;;;;;27.50;24.00;;;;;21.06;45.27;101878.50;5102203;27;45400;-69
2021/10/10 09:53:13;;;;;;;;;40.50;32.75;;;;;21.09;44.90;101881.09;5078797;27;45448;-69
2021/10/10 09:55:59;;;;;;;;;32.25;29.25;;;;;21.09;44.96;101886.41;5102186;27;45318;-70
2021/10/10 09:58:38;;;;;;;;;33.75;31.75;;;;;21.10;44.79;101885.50;5083997;27;45904;-69
2021/10/10 10:01:20;;;;;;;;;34.25;31.25;;;;;21.11;45.10;101876.63;5102140;27;46058;-69
2021/10/10 10:03:55;;;;;;;;;38.25;33.75;;;;;21.16;44.91;101883.63;5083984;27;45418;-69
2021/10/10 10:06:21;;;;;;;;;36.50;32.25;;;;;21.17;45.00;101884.50;5100317;27;45498;-69
2021/10/10 10:08:46;;;;;;;;;35.00;31.25;;;;;21.20;44.89;101879.16;5104388;27;45291;-69
2021/10/10 10:11:12;;;;;;;;;42.50;33.75;;;;;21.22;44.49;101876.47;5104322;27;46207;-69
2021/10/10 10:13:37;;;;;;;;;40.75;31.75;;;;;21.24;44.65;101880.84;5060674;27;54948;-69
2021/10/10 10:16:03;;;;;;;;;35.50;29.75;;;;;21.27;44.36;101878.16;5068825;27;53144;-69
2021/10/10 10:18:28;;;;;;;;;40.50;33.50;;;;;21.33;44.89;101880.72;5104037;27;45287;-69
2021/10/10 10:20:54;;;;;;;;;34.75;30.25;;;;;21.38;44.72;101875.34;5070522;27;57323;-69
2021/10/10 10:23:19;;;;;;;;;36.25;30.75;;;;;21.41;44.51;101878.81;5049580;27;45906;-69
2021/10/10 10:25:45;;;;;;;;;36.25;30.75;;;;;21.47;45.04;101880.50;5065117;27;54390;-69
2021/10/10 10:28:10;;;;;;;;;36.75;32.00;;;;;21.48;44.83;101884.91;5086735;27;50840;-70
2021/10/10 10:30:36;;;;;;;;;35.50;32.50;;;;;21.50;44.51;101885.75;5087321;27;51160;-69
2021/10/10 10:33:02;;;;;;;;;35.25;31.25;;;;;21.54;44.88;101886.56;5072479;27;45530;-69
2021/10/10 10:35:48;;;;;;;;;40.50;33.00;;;;;21.57;44.64;101890.06;5067832;27;59941;-70
2021/10/10 10:38:16;;;;;;;;;38.00;33.00;;;;;21.60;44.55;101894.44;5122083;27;45419;-69
2021/10/10 10:40:42;;;;;;;;;31.75;30.25;;;;;21.60;44.86;101890.00;5103914;27;46144;-70
2021/10/10 10:43:14;;;;;;;;;37.25;31.75;;;;;21.62;44.60;101896.16;5103931;27;45279;-70
2021/10/10 10:46:04;;;;;;;;;36.75;32.00;;;;;21.62;44.35;101892.63;5104422;27;45290;-69
2021/10/10 10:48:29;;;;;;;;;37.25;30.25;;;;;21.65;44.16;101897.91;5067176;27;45819;-70
2021/10/10 10:51:23;;;;;;;;;33.75;30.00;;;;;21.66;43.91;101900.53;5089007;27;48062;-69
2021/10/10 10:54:43;;;;;;;;;;;;;;;;;;;;;
2021/10/10 10:57:38;;;;;;;;;30.50;29.75;;;;;21.68;44.70;101898.69;5108192;27;67598;-70
2021/10/10 11:00:13;;;;;;;;;34.25;31.00;;;;;21.66;44.39;101886.34;5090201;27;45417;-71
2021/10/10 11:02:47;;;;;;;;;34.75;30.25;;;;;21.73;44.34;101896.84;5101021;27;47080;-69
2021/10/10 11:06:33;;;;;;;;;37.25;31.50;;;;;21.75;44.34;101896.81;5108686;27;45647;-70
2021/10/10 11:08:41;;;;;;;;;33.25;28.75;;;;;21.73;44.10;101894.19;5100589;27;45293;-69
2021/10/10 11:11:09;;;;;;;;;31.75;27.75;;;;;21.72;44.34;101889.78;5086295;27;45244;-68
2021/10/10 11:13:34;;;;;;;;;41.00;33.25;;;;;21.75;44.59;101883.53;5103099;27;47920;-68
2021/10/10 11:16:30;;;;;;;;;28.00;26.75;;;;;21.76;44.19;101887.06;5121507;27;45422;-68
2021/10/10 11:18:56;;;;;;;;;36.75;28.25;;;;;21.77;44.08;101884.38;5103094;27;45555;-69
2021/10/10 11:21:28;;;;;;;;;38.00;33.00;;;;;21.76;43.92;101887.94;5096191;27;45350;-69
2021/10/10 11:23:55;;;;;;;;;38.50;31.75;;;;;21.76;44.38;101887.06;5094488;27;49100;-69
2021/10/10 11:26:21;;;;;;;;;36.50;30.00;;;;;21.74;44.33;101887.09;5069833;27;45415;-69
2021/10/10 11:35:47;;;;;;;;;31.50;28.00;;;;;21.80;44.22;101870.13;5073449;27;45488;-72
2021/10/10 11:38:17;;;;;;;;;29.75;26.00;;;;;21.76;44.17;101864.03;5050223;28;45425;-69
2021/10/10 11:40:59;;;;;;;;;25.75;24.25;;;;;21.78;43.93;101867.50;5073358;28;45294;-70
2021/10/10 11:43:28;;;;;;;;;30.00;25.75;;;;;21.83;44.32;101872.75;5042111;28;45586;-69
2021/10/10 11:45:59;;;;;;;;;29.25;26.75;;;;;21.83;44.14;101865.66;5046403;28;48315;-70
2021/10/10 11:48:37;;;;;;;;;30.75;28.50;;;;;21.84;43.79;101875.38;5043753;28;45564;-69
2021/10/10 11:51:06;;;;;;;;;32.50;29.25;;;;;21.89;44.22;101872.63;5079089;28;45339;-71
2021/10/10 11:53:45;;;;;;;;;25.50;25.00;;;;;21.91;43.88;101869.03;5078443;28;45468;-70
2021/10/10 11:56:11;;;;;;;;;32.00;24.00;;;;;21.92;43.99;101869.91;5079799;27;46398;-70
2021/10/10 11:58:46;;;;;;;;;33.25;29.75;;;;;21.91;44.14;101869.03;5078566;28;45308;-69
2021/10/10 12:01:12;;;;;;;;;29.00;25.75;;;;;21.92;43.54;101860.16;5061918;28;45291;-69
2021/10/10 12:03:45;;;;;;;;;26.00;24.50;;;;;21.89;43.20;101865.53;5044965;28;45255;-69
2021/10/10 12:06:20;;;;;;;;;31.50;27.00;;;;;21.88;43.56;101861.09;5031549;28;48196;-69